sensor_id;sensor_type;location;lat;lon;timestamp;P1;durP1;ratioP1;P2;durP2;ratioP2
52033;SDS011;38045;52.988;6.536;2023-04-25T00:00:04;11.05;;;3.30;;
52033;SDS011;38045;52.988;6.536;2023-04-25T00:02:32;16.95;;;7.75;;
52033;SDS011;38045;52.988;6.536;2023-04-25T00:04:59;19.52;;;5.38;;
52033;SDS011;38045;52.988;6.536;2023-04-25T00:07:26;14.70;;;4.95;;
52033;SDS011;38045;52.988;6.536;2023-04-25T00:09:52;24.42;;;6.13;;
52033;SDS011;38045;52.988;6.536;2023-04-25T00:12:18;16.85;;;5.38;;
52033;SDS011;38045;52.988;6.536;2023-04-25T00:14:43;20.13;;;6.10;;
52033;SDS011;38045;52.988;6.536;2023-04-25T00:17:10;23.38;;;4.78;;
52033;SDS011;38045;52.988;6.536;2023-04-25T00:19:36;15.65;;;5.82;;
52033;SDS011;38045;52.988;6.536;2023-04-25T00:22:02;13.10;;;4.95;;
52033;SDS011;38045;52.988;6.536;2023-04-25T00:24:28;18.33;;;5.28;;
52033;SDS011;38045;52.988;6.536;2023-04-25T00:26:54;15.10;;;4.18;;
52033;SDS011;38045;52.988;6.536;2023-04-25T00:29:20;20.60;;;5.40;;
52033;SDS011;38045;52.988;6.536;2023-04-25T00:31:45;17.83;;;6.70;;
52033;SDS011;38045;52.988;6.536;2023-04-25T00:34:11;18.35;;;5.70;;
52033;SDS011;38045;52.988;6.536;2023-04-25T00:36:37;14.18;;;6.05;;
52033;SDS011;38045;52.988;6.536;2023-04-25T00:39:03;19.63;;;4.80;;
52033;SDS011;38045;52.988;6.536;2023-04-25T00:41:29;15.10;;;4.53;;
52033;SDS011;38045;52.988;6.536;2023-04-25T00:43:55;15.55;;;5.03;;
52033;SDS011;38045;52.988;6.536;2023-04-25T00:46:22;11.95;;;5.20;;
52033;SDS011;38045;52.988;6.536;2023-04-25T00:48:48;16.42;;;4.80;;
52033;SDS011;38045;52.988;6.536;2023-04-25T00:51:16;14.82;;;5.53;;
52033;SDS011;38045;52.988;6.536;2023-04-25T00:53:44;12.85;;;6.25;;
52033;SDS011;38045;52.988;6.536;2023-04-25T00:56:10;18.98;;;5.20;;
52033;SDS011;38045;52.988;6.536;2023-04-25T00:58:36;25.95;;;7.45;;
52033;SDS011;38045;52.988;6.536;2023-04-25T01:01:03;16.98;;;5.43;;
52033;SDS011;38045;52.988;6.536;2023-04-25T01:03:29;15.43;;;5.85;;
52033;SDS011;38045;52.988;6.536;2023-04-25T01:05:57;21.35;;;6.55;;
52033;SDS011;38045;52.988;6.536;2023-04-25T01:08:23;13.15;;;4.22;;
52033;SDS011;38045;52.988;6.536;2023-04-25T01:10:50;16.20;;;4.95;;
52033;SDS011;38045;52.988;6.536;2023-04-25T01:13:16;18.02;;;4.35;;
52033;SDS011;38045;52.988;6.536;2023-04-25T01:15:41;15.43;;;3.83;;
52033;SDS011;38045;52.988;6.536;2023-04-25T01:18:07;13.80;;;4.97;;
52033;SDS011;38045;52.988;6.536;2023-04-25T01:20:33;15.23;;;3.83;;
52033;SDS011;38045;52.988;6.536;2023-04-25T01:22:59;17.35;;;5.20;;
52033;SDS011;38045;52.988;6.536;2023-04-25T01:25:27;26.75;;;7.32;;
52033;SDS011;38045;52.988;6.536;2023-04-25T01:27:52;11.30;;;4.75;;
52033;SDS011;38045;52.988;6.536;2023-04-25T01:30:18;11.30;;;3.60;;
52033;SDS011;38045;52.988;6.536;2023-04-25T01:32:44;15.48;;;5.57;;
52033;SDS011;38045;52.988;6.536;2023-04-25T01:35:10;15.90;;;4.25;;
52033;SDS011;38045;52.988;6.536;2023-04-25T01:37:37;18.00;;;4.97;;
52033;SDS011;38045;52.988;6.536;2023-04-25T01:40:04;15.77;;;5.80;;
52033;SDS011;38045;52.988;6.536;2023-04-25T01:42:33;16.15;;;6.22;;
52033;SDS011;38045;52.988;6.536;2023-04-25T01:45:00;12.90;;;4.18;;
52033;SDS011;38045;52.988;6.536;2023-04-25T01:47:27;16.92;;;5.88;;
52033;SDS011;38045;52.988;6.536;2023-04-25T01:49:52;13.45;;;5.25;;
52033;SDS011;38045;52.988;6.536;2023-04-25T01:52:18;15.95;;;6.22;;
52033;SDS011;38045;52.988;6.536;2023-04-25T01:54:44;14.73;;;4.13;;
52033;SDS011;38045;52.988;6.536;2023-04-25T01:57:10;23.92;;;5.32;;
52033;SDS011;38045;52.988;6.536;2023-04-25T01:59:36;17.10;;;6.13;;
52033;SDS011;38045;52.988;6.536;2023-04-25T02:02:02;15.30;;;5.40;;
52033;SDS011;38045;52.988;6.536;2023-04-25T02:04:32;11.55;;;4.05;;
52033;SDS011;38045;52.988;6.536;2023-04-25T02:09:23;18.02;;;5.07;;
52033;SDS011;38045;52.988;6.536;2023-04-25T02:11:49;10.80;;;4.20;;
52033;SDS011;38045;52.988;6.536;2023-04-25T02:14:14;17.25;;;4.93;;
52033;SDS011;38045;52.988;6.536;2023-04-25T02:16:40;19.77;;;4.78;;
52033;SDS011;38045;52.988;6.536;2023-04-25T02:19:08;10.30;;;4.18;;
52033;SDS011;38045;52.988;6.536;2023-04-25T02:21:35;14.50;;;3.55;;
52033;SDS011;38045;52.988;6.536;2023-04-25T02:24:00;14.50;;;5.63;;
52033;SDS011;38045;52.988;6.536;2023-04-25T02:26:26;22.63;;;5.45;;
52033;SDS011;38045;52.988;6.536;2023-04-25T02:28:52;14.85;;;4.97;;
52033;SDS011;38045;52.988;6.536;2023-04-25T02:31:17;12.63;;;3.72;;
52033;SDS011;38045;52.988;6.536;2023-04-25T02:33:43;8.75;;;3.72;;
52033;SDS011;38045;52.988;6.536;2023-04-25T02:36:09;15.02;;;4.05;;
52033;SDS011;38045;52.988;6.536;2023-04-25T02:38:35;16.17;;;5.63;;
52033;SDS011;38045;52.988;6.536;2023-04-25T02:41:00;11.10;;;2.88;;
52033;SDS011;38045;52.988;6.536;2023-04-25T02:43:26;19.13;;;5.53;;
52033;SDS011;38045;52.988;6.536;2023-04-25T02:45:51;12.80;;;3.45;;
52033;SDS011;38045;52.988;6.536;2023-04-25T02:48:17;19.63;;;4.65;;
52033;SDS011;38045;52.988;6.536;2023-04-25T02:50:43;10.35;;;4.68;;
52033;SDS011;38045;52.988;6.536;2023-04-25T02:53:09;17.77;;;4.25;;
52033;SDS011;38045;52.988;6.536;2023-04-25T02:55:34;10.15;;;3.80;;
52033;SDS011;38045;52.988;6.536;2023-04-25T02:58:00;11.50;;;3.88;;
52033;SDS011;38045;52.988;6.536;2023-04-25T03:00:26;20.67;;;5.05;;
52033;SDS011;38045;52.988;6.536;2023-04-25T03:02:51;17.30;;;3.50;;
52033;SDS011;38045;52.988;6.536;2023-04-25T03:05:17;15.90;;;4.70;;
52033;SDS011;38045;52.988;6.536;2023-04-25T03:07:43;12.48;;;3.40;;
52033;SDS011;38045;52.988;6.536;2023-04-25T03:10:09;13.13;;;4.22;;
52033;SDS011;38045;52.988;6.536;2023-04-25T03:12:35;14.57;;;4.25;;
52033;SDS011;38045;52.988;6.536;2023-04-25T03:15:01;10.68;;;3.83;;
52033;SDS011;38045;52.988;6.536;2023-04-25T03:17:27;21.00;;;6.00;;
52033;SDS011;38045;52.988;6.536;2023-04-25T03:19:53;16.25;;;2.97;;
52033;SDS011;38045;52.988;6.536;2023-04-25T03:22:19;8.77;;;2.75;;
52033;SDS011;38045;52.988;6.536;2023-04-25T03:24:45;13.10;;;3.60;;
52033;SDS011;38045;52.988;6.536;2023-04-25T03:27:10;7.72;;;2.95;;
52033;SDS011;38045;52.988;6.536;2023-04-25T03:29:36;9.77;;;4.03;;
52033;SDS011;38045;52.988;6.536;2023-04-25T03:32:01;7.00;;;3.05;;
52033;SDS011;38045;52.988;6.536;2023-04-25T03:34:27;10.65;;;4.20;;
52033;SDS011;38045;52.988;6.536;2023-04-25T03:36:53;11.98;;;2.85;;
52033;SDS011;38045;52.988;6.536;2023-04-25T03:39:18;5.32;;;2.50;;
52033;SDS011;38045;52.988;6.536;2023-04-25T03:41:44;6.60;;;2.65;;
52033;SDS011;38045;52.988;6.536;2023-04-25T03:44:09;13.55;;;3.20;;
52033;SDS011;38045;52.988;6.536;2023-04-25T03:46:35;9.25;;;3.25;;
52033;SDS011;38045;52.988;6.536;2023-04-25T03:49:01;13.77;;;4.15;;
52033;SDS011;38045;52.988;6.536;2023-04-25T03:51:26;7.93;;;1.88;;
52033;SDS011;38045;52.988;6.536;2023-04-25T03:53:52;8.60;;;1.65;;
52033;SDS011;38045;52.988;6.536;2023-04-25T03:56:18;5.35;;;1.42;;
52033;SDS011;38045;52.988;6.536;2023-04-25T03:58:43;7.63;;;2.58;;
52033;SDS011;38045;52.988;6.536;2023-04-25T04:01:09;6.03;;;1.40;;
52033;SDS011;38045;52.988;6.536;2023-04-25T04:03:35;3.88;;;1.73;;
52033;SDS011;38045;52.988;6.536;2023-04-25T04:06:03;5.45;;;1.33;;
52033;SDS011;38045;52.988;6.536;2023-04-25T04:08:30;5.75;;;1.58;;
52033;SDS011;38045;52.988;6.536;2023-04-25T04:10:57;7.97;;;3.70;;
52033;SDS011;38045;52.988;6.536;2023-04-25T04:13:22;11.32;;;2.30;;
52033;SDS011;38045;52.988;6.536;2023-04-25T04:15:48;8.13;;;2.30;;
52033;SDS011;38045;52.988;6.536;2023-04-25T04:18:13;9.88;;;2.40;;
52033;SDS011;38045;52.988;6.536;2023-04-25T04:20:39;7.50;;;1.77;;
52033;SDS011;38045;52.988;6.536;2023-04-25T04:23:05;8.10;;;1.80;;
52033;SDS011;38045;52.988;6.536;2023-04-25T04:25:30;9.27;;;2.15;;
52033;SDS011;38045;52.988;6.536;2023-04-25T04:27:56;2.67;;;1.33;;
52033;SDS011;38045;52.988;6.536;2023-04-25T04:30:22;6.45;;;2.28;;
52033;SDS011;38045;52.988;6.536;2023-04-25T04:32:54;18.55;;;3.78;;
52033;SDS011;38045;52.988;6.536;2023-04-25T04:35:21;8.73;;;2.97;;
52033;SDS011;38045;52.988;6.536;2023-04-25T04:37:47;5.68;;;1.35;;
52033;SDS011;38045;52.988;6.536;2023-04-25T04:40:13;3.30;;;1.77;;
52033;SDS011;38045;52.988;6.536;2023-04-25T04:42:41;5.38;;;2.35;;
52033;SDS011;38045;52.988;6.536;2023-04-25T04:45:07;7.15;;;2.17;;
52033;SDS011;38045;52.988;6.536;2023-04-25T04:47:33;14.52;;;3.03;;
52033;SDS011;38045;52.988;6.536;2023-04-25T04:50:01;6.43;;;1.88;;
52033;SDS011;38045;52.988;6.536;2023-04-25T04:52:28;5.80;;;1.88;;
52033;SDS011;38045;52.988;6.536;2023-04-25T04:54:53;12.32;;;2.53;;
52033;SDS011;38045;52.988;6.536;2023-04-25T04:57:19;15.25;;;3.40;;
52033;SDS011;38045;52.988;6.536;2023-04-25T04:59:44;11.57;;;2.05;;
52033;SDS011;38045;52.988;6.536;2023-04-25T05:02:10;7.05;;;1.92;;
52033;SDS011;38045;52.988;6.536;2023-04-25T05:04:36;2.30;;;0.88;;
52033;SDS011;38045;52.988;6.536;2023-04-25T05:07:02;10.50;;;1.73;;
52033;SDS011;38045;52.988;6.536;2023-04-25T05:09:27;6.88;;;1.83;;
52033;SDS011;38045;52.988;6.536;2023-04-25T05:11:53;2.78;;;1.60;;
52033;SDS011;38045;52.988;6.536;2023-04-25T05:14:18;6.55;;;1.83;;
52033;SDS011;38045;52.988;6.536;2023-04-25T05:16:44;8.05;;;1.85;;
52033;SDS011;38045;52.988;6.536;2023-04-25T05:19:09;5.15;;;1.98;;
52033;SDS011;38045;52.988;6.536;2023-04-25T05:21:35;10.13;;;3.05;;
52033;SDS011;38045;52.988;6.536;2023-04-25T05:24:01;10.45;;;3.60;;
52033;SDS011;38045;52.988;6.536;2023-04-25T05:26:27;6.50;;;3.38;;
52033;SDS011;38045;52.988;6.536;2023-04-25T05:28:56;4.47;;;1.95;;
52033;SDS011;38045;52.988;6.536;2023-04-25T05:31:22;17.05;;;2.35;;
52033;SDS011;38045;52.988;6.536;2023-04-25T05:33:48;8.23;;;2.10;;
52033;SDS011;38045;52.988;6.536;2023-04-25T05:36:13;8.45;;;2.67;;
52033;SDS011;38045;52.988;6.536;2023-04-25T05:38:39;12.40;;;4.20;;
52033;SDS011;38045;52.988;6.536;2023-04-25T05:41:04;8.70;;;2.63;;
52033;SDS011;38045;52.988;6.536;2023-04-25T05:43:30;3.97;;;1.90;;
52033;SDS011;38045;52.988;6.536;2023-04-25T05:45:56;2.83;;;1.73;;
52033;SDS011;38045;52.988;6.536;2023-04-25T05:48:21;14.68;;;4.57;;
52033;SDS011;38045;52.988;6.536;2023-04-25T05:50:47;5.68;;;2.75;;
52033;SDS011;38045;52.988;6.536;2023-04-25T05:53:12;11.45;;;2.58;;
52033;SDS011;38045;52.988;6.536;2023-04-25T05:55:38;9.27;;;2.13;;
52033;SDS011;38045;52.988;6.536;2023-04-25T05:58:04;6.68;;;2.15;;
52033;SDS011;38045;52.988;6.536;2023-04-25T06:00:32;8.93;;;2.38;;
52033;SDS011;38045;52.988;6.536;2023-04-25T06:02:57;6.35;;;1.88;;
52033;SDS011;38045;52.988;6.536;2023-04-25T06:05:23;8.90;;;2.28;;
52033;SDS011;38045;52.988;6.536;2023-04-25T06:07:48;11.02;;;3.65;;
52033;SDS011;38045;52.988;6.536;2023-04-25T06:10:14;12.43;;;2.92;;
52033;SDS011;38045;52.988;6.536;2023-04-25T06:12:40;8.98;;;2.97;;
52033;SDS011;38045;52.988;6.536;2023-04-25T06:15:06;10.43;;;2.50;;
52033;SDS011;38045;52.988;6.536;2023-04-25T06:17:32;9.90;;;2.63;;
52033;SDS011;38045;52.988;6.536;2023-04-25T06:19:58;7.65;;;3.75;;
52033;SDS011;38045;52.988;6.536;2023-04-25T06:22:23;20.00;;;3.65;;
52033;SDS011;38045;52.988;6.536;2023-04-25T06:24:49;10.93;;;2.20;;
52033;SDS011;38045;52.988;6.536;2023-04-25T06:27:15;10.93;;;4.63;;
52033;SDS011;38045;52.988;6.536;2023-04-25T06:29:40;13.52;;;2.83;;
52033;SDS011;38045;52.988;6.536;2023-04-25T06:32:06;11.05;;;1.90;;
52033;SDS011;38045;52.988;6.536;2023-04-25T06:34:31;12.20;;;2.67;;
52033;SDS011;38045;52.988;6.536;2023-04-25T06:36:57;9.35;;;2.92;;
52033;SDS011;38045;52.988;6.536;2023-04-25T06:39:22;8.77;;;3.05;;
52033;SDS011;38045;52.988;6.536;2023-04-25T06:41:49;11.63;;;2.65;;
52033;SDS011;38045;52.988;6.536;2023-04-25T06:44:15;8.65;;;2.78;;
52033;SDS011;38045;52.988;6.536;2023-04-25T06:46:40;7.38;;;2.28;;
52033;SDS011;38045;52.988;6.536;2023-04-25T06:49:06;6.57;;;2.85;;
52033;SDS011;38045;52.988;6.536;2023-04-25T06:51:32;9.57;;;2.55;;
52033;SDS011;38045;52.988;6.536;2023-04-25T06:53:57;6.75;;;2.10;;
52033;SDS011;38045;52.988;6.536;2023-04-25T06:56:23;3.42;;;1.70;;
52033;SDS011;38045;52.988;6.536;2023-04-25T06:58:49;12.73;;;2.20;;
52033;SDS011;38045;52.988;6.536;2023-04-25T07:01:15;8.65;;;1.95;;
52033;SDS011;38045;52.988;6.536;2023-04-25T07:03:40;2.55;;;1.17;;
52033;SDS011;38045;52.988;6.536;2023-04-25T07:06:06;9.18;;;2.03;;
52033;SDS011;38045;52.988;6.536;2023-04-25T07:08:32;5.90;;;0.70;;
52033;SDS011;38045;52.988;6.536;2023-04-25T07:10:57;5.82;;;2.08;;
52033;SDS011;38045;52.988;6.536;2023-04-25T07:13:23;6.00;;;1.88;;
52033;SDS011;38045;52.988;6.536;2023-04-25T07:15:49;6.10;;;2.50;;
52033;SDS011;38045;52.988;6.536;2023-04-25T07:18:14;7.32;;;1.75;;
52033;SDS011;38045;52.988;6.536;2023-04-25T07:20:41;5.60;;;0.95;;
52033;SDS011;38045;52.988;6.536;2023-04-25T07:23:06;2.35;;;1.80;;
52033;SDS011;38045;52.988;6.536;2023-04-25T07:25:32;3.42;;;1.05;;
52033;SDS011;38045;52.988;6.536;2023-04-25T07:27:57;10.38;;;2.90;;
52033;SDS011;38045;52.988;6.536;2023-04-25T07:30:23;5.88;;;2.20;;
52033;SDS011;38045;52.988;6.536;2023-04-25T07:32:49;4.55;;;1.52;;
52033;SDS011;38045;52.988;6.536;2023-04-25T07:35:15;2.83;;;1.92;;
52033;SDS011;38045;52.988;6.536;2023-04-25T07:37:41;12.35;;;1.60;;
52033;SDS011;38045;52.988;6.536;2023-04-25T07:40:07;8.52;;;1.70;;
52033;SDS011;38045;52.988;6.536;2023-04-25T07:42:34;9.27;;;1.80;;
52033;SDS011;38045;52.988;6.536;2023-04-25T07:45:00;9.57;;;1.63;;
52033;SDS011;38045;52.988;6.536;2023-04-25T07:47:26;10.70;;;3.58;;
52033;SDS011;38045;52.988;6.536;2023-04-25T07:49:51;5.63;;;1.90;;
52033;SDS011;38045;52.988;6.536;2023-04-25T07:52:17;9.82;;;1.42;;
52033;SDS011;38045;52.988;6.536;2023-04-25T07:54:43;8.63;;;2.38;;
52033;SDS011;38045;52.988;6.536;2023-04-25T07:57:08;8.65;;;1.90;;
52033;SDS011;38045;52.988;6.536;2023-04-25T07:59:34;7.07;;;1.60;;
52033;SDS011;38045;52.988;6.536;2023-04-25T08:02:00;9.63;;;1.65;;
52033;SDS011;38045;52.988;6.536;2023-04-25T08:04:26;6.05;;;1.42;;
52033;SDS011;38045;52.988;6.536;2023-04-25T08:06:51;10.18;;;2.95;;
52033;SDS011;38045;52.988;6.536;2023-04-25T08:09:18;11.90;;;3.70;;
52033;SDS011;38045;52.988;6.536;2023-04-25T08:11:44;6.30;;;1.73;;
52033;SDS011;38045;52.988;6.536;2023-04-25T08:14:11;5.50;;;1.77;;
52033;SDS011;38045;52.988;6.536;2023-04-25T08:16:37;3.13;;;0.98;;
52033;SDS011;38045;52.988;6.536;2023-04-25T08:19:02;8.60;;;2.22;;
52033;SDS011;38045;52.988;6.536;2023-04-25T08:21:28;3.47;;;0.98;;
52033;SDS011;38045;52.988;6.536;2023-04-25T08:23:54;9.10;;;1.98;;
52033;SDS011;38045;52.988;6.536;2023-04-25T08:26:20;7.32;;;1.42;;
52033;SDS011;38045;52.988;6.536;2023-04-25T08:28:45;6.75;;;2.03;;
52033;SDS011;38045;52.988;6.536;2023-04-25T08:31:11;3.92;;;1.73;;
52033;SDS011;38045;52.988;6.536;2023-04-25T08:33:37;6.57;;;0.70;;
52033;SDS011;38045;52.988;6.536;2023-04-25T08:36:03;2.75;;;0.98;;
52033;SDS011;38045;52.988;6.536;2023-04-25T08:38:28;5.97;;;1.20;;
52033;SDS011;38045;52.988;6.536;2023-04-25T08:40:54;3.30;;;1.25;;
52033;SDS011;38045;52.988;6.536;2023-04-25T08:43:24;4.38;;;0.90;;
52033;SDS011;38045;52.988;6.536;2023-04-25T08:45:50;4.57;;;1.27;;
52033;SDS011;38045;52.988;6.536;2023-04-25T08:48:19;7.18;;;2.03;;
52033;SDS011;38045;52.988;6.536;2023-04-25T08:50:52;6.03;;;1.35;;
52033;SDS011;38045;52.988;6.536;2023-04-25T08:53:25;7.38;;;1.35;;
52033;SDS011;38045;52.988;6.536;2023-04-25T08:55:55;3.00;;;1.33;;
52033;SDS011;38045;52.988;6.536;2023-04-25T08:58:22;3.85;;;1.08;;
52033;SDS011;38045;52.988;6.536;2023-04-25T09:00:48;3.15;;;0.95;;
52033;SDS011;38045;52.988;6.536;2023-04-25T09:03:18;2.63;;;0.70;;
52033;SDS011;38045;52.988;6.536;2023-04-25T09:05:44;2.20;;;0.80;;
52033;SDS011;38045;52.988;6.536;2023-04-25T09:08:10;1.10;;;0.60;;
52033;SDS011;38045;52.988;6.536;2023-04-25T09:10:36;1.92;;;0.45;;
52033;SDS011;38045;52.988;6.536;2023-04-25T09:13:09;2.72;;;1.13;;
52033;SDS011;38045;52.988;6.536;2023-04-25T09:18:35;1.38;;;0.40;;
52033;SDS011;38045;52.988;6.536;2023-04-25T09:21:05;6.68;;;1.38;;
52033;SDS011;38045;52.988;6.536;2023-04-25T09:23:39;6.40;;;1.63;;
52033;SDS011;38045;52.988;6.536;2023-04-25T09:26:07;1.27;;;0.50;;
52033;SDS011;38045;52.988;6.536;2023-04-25T09:28:34;6.18;;;1.88;;
52033;SDS011;38045;52.988;6.536;2023-04-25T09:31:00;4.22;;;1.83;;
52033;SDS011;38045;52.988;6.536;2023-04-25T09:33:27;6.00;;;2.28;;
52033;SDS011;38045;52.988;6.536;2023-04-25T09:35:56;2.65;;;0.47;;
52033;SDS011;38045;52.988;6.536;2023-04-25T09:38:27;2.47;;;0.65;;
52033;SDS011;38045;52.988;6.536;2023-04-25T09:41:05;3.13;;;1.25;;
52033;SDS011;38045;52.988;6.536;2023-04-25T09:43:31;8.88;;;2.28;;
52033;SDS011;38045;52.988;6.536;2023-04-25T09:45:56;3.78;;;1.38;;
52033;SDS011;38045;52.988;6.536;2023-04-25T09:48:24;6.55;;;1.45;;
52033;SDS011;38045;52.988;6.536;2023-04-25T09:53:44;3.60;;;1.63;;
52033;SDS011;38045;52.988;6.536;2023-04-25T09:56:11;4.80;;;1.70;;
52033;SDS011;38045;52.988;6.536;2023-04-25T09:58:38;3.50;;;1.13;;
52033;SDS011;38045;52.988;6.536;2023-04-25T10:01:06;1.67;;;1.10;;
52033;SDS011;38045;52.988;6.536;2023-04-25T10:03:34;5.32;;;1.20;;
52033;SDS011;38045;52.988;6.536;2023-04-25T10:06:02;3.15;;;1.58;;
52033;SDS011;38045;52.988;6.536;2023-04-25T10:08:33;8.65;;;2.15;;
52033;SDS011;38045;52.988;6.536;2023-04-25T10:11:03;5.75;;;0.90;;
52033;SDS011;38045;52.988;6.536;2023-04-25T10:13:30;6.22;;;1.77;;
52033;SDS011;38045;52.988;6.536;2023-04-25T10:16:02;12.40;;;3.30;;
52033;SDS011;38045;52.988;6.536;2023-04-25T10:18:29;8.65;;;2.97;;
52033;SDS011;38045;52.988;6.536;2023-04-25T10:20:56;10.30;;;2.15;;
52033;SDS011;38045;52.988;6.536;2023-04-25T10:23:26;7.75;;;1.77;;
52033;SDS011;38045;52.988;6.536;2023-04-25T10:25:54;10.02;;;1.80;;
52033;SDS011;38045;52.988;6.536;2023-04-25T10:28:20;12.13;;;2.70;;
52033;SDS011;38045;52.988;6.536;2023-04-25T10:33:35;4.07;;;1.65;;
52033;SDS011;38045;52.988;6.536;2023-04-25T10:36:12;8.15;;;2.00;;
52033;SDS011;38045;52.988;6.536;2023-04-25T10:38:40;3.95;;;2.28;;
52033;SDS011;38045;52.988;6.536;2023-04-25T10:41:08;13.70;;;1.52;;
52033;SDS011;38045;52.988;6.536;2023-04-25T10:48:53;4.22;;;1.40;;
52033;SDS011;38045;52.988;6.536;2023-04-25T10:51:21;3.72;;;1.38;;
52033;SDS011;38045;52.988;6.536;2023-04-25T10:58:49;4.68;;;1.67;;
52033;SDS011;38045;52.988;6.536;2023-04-25T11:01:19;2.97;;;0.73;;
52033;SDS011;38045;52.988;6.536;2023-04-25T11:03:46;1.88;;;0.70;;
52033;SDS011;38045;52.988;6.536;2023-04-25T11:06:37;4.10;;;0.77;;
52033;SDS011;38045;52.988;6.536;2023-04-25T11:09:23;3.53;;;1.45;;
52033;SDS011;38045;52.988;6.536;2023-04-25T11:11:56;7.60;;;1.25;;
52033;SDS011;38045;52.988;6.536;2023-04-25T11:14:23;5.05;;;1.70;;
52033;SDS011;38045;52.988;6.536;2023-04-25T11:16:56;7.30;;;1.20;;
52033;SDS011;38045;52.988;6.536;2023-04-25T11:19:22;4.47;;;1.40;;
52033;SDS011;38045;52.988;6.536;2023-04-25T11:21:50;6.32;;;1.90;;
52033;SDS011;38045;52.988;6.536;2023-04-25T11:24:19;6.80;;;1.17;;
52033;SDS011;38045;52.988;6.536;2023-04-25T11:26:50;9.60;;;2.40;;
52033;SDS011;38045;52.988;6.536;2023-04-25T11:29:15;7.35;;;1.85;;
52033;SDS011;38045;52.988;6.536;2023-04-25T11:31:44;13.18;;;1.95;;
52033;SDS011;38045;52.988;6.536;2023-04-25T11:34:16;10.77;;;2.28;;
52033;SDS011;38045;52.988;6.536;2023-04-25T11:36:45;6.57;;;2.05;;
52033;SDS011;38045;52.988;6.536;2023-04-25T11:39:11;5.07;;;2.25;;
52033;SDS011;38045;52.988;6.536;2023-04-25T11:41:37;4.35;;;1.67;;
52033;SDS011;38045;52.988;6.536;2023-04-25T11:44:03;6.43;;;2.00;;
52033;SDS011;38045;52.988;6.536;2023-04-25T11:46:29;7.70;;;1.45;;
52033;SDS011;38045;52.988;6.536;2023-04-25T11:48:55;6.63;;;2.00;;
52033;SDS011;38045;52.988;6.536;2023-04-25T11:51:22;4.78;;;1.05;;
52033;SDS011;38045;52.988;6.536;2023-04-25T11:53:47;5.20;;;1.58;;
52033;SDS011;38045;52.988;6.536;2023-04-25T11:56:13;10.85;;;2.97;;
52033;SDS011;38045;52.988;6.536;2023-04-25T12:01:46;9.90;;;2.35;;
52033;SDS011;38045;52.988;6.536;2023-04-25T12:04:15;9.60;;;2.38;;
52033;SDS011;38045;52.988;6.536;2023-04-25T12:06:42;6.53;;;1.38;;
52033;SDS011;38045;52.988;6.536;2023-04-25T12:09:11;4.47;;;1.42;;
52033;SDS011;38045;52.988;6.536;2023-04-25T12:11:44;4.00;;;0.95;;
52033;SDS011;38045;52.988;6.536;2023-04-25T12:14:27;3.58;;;0.90;;
52033;SDS011;38045;52.988;6.536;2023-04-25T12:16:55;11.63;;;2.17;;
52033;SDS011;38045;52.988;6.536;2023-04-25T12:19:22;4.80;;;1.38;;
52033;SDS011;38045;52.988;6.536;2023-04-25T12:21:49;7.05;;;2.20;;
52033;SDS011;38045;52.988;6.536;2023-04-25T12:24:21;2.90;;;1.13;;
52033;SDS011;38045;52.988;6.536;2023-04-25T12:26:58;2.28;;;0.63;;
52033;SDS011;38045;52.988;6.536;2023-04-25T12:29:27;5.47;;;1.05;;
52033;SDS011;38045;52.988;6.536;2023-04-25T12:31:54;3.90;;;1.23;;
52033;SDS011;38045;52.988;6.536;2023-04-25T12:34:21;3.15;;;1.08;;
52033;SDS011;38045;52.988;6.536;2023-04-25T12:36:47;3.42;;;1.42;;
52033;SDS011;38045;52.988;6.536;2023-04-25T12:39:23;4.85;;;2.22;;
52033;SDS011;38045;52.988;6.536;2023-04-25T12:41:50;6.35;;;1.50;;
52033;SDS011;38045;52.988;6.536;2023-04-25T12:44:19;11.82;;;1.25;;
52033;SDS011;38045;52.988;6.536;2023-04-25T12:46:46;6.55;;;1.45;;
52033;SDS011;38045;52.988;6.536;2023-04-25T12:49:12;2.92;;;0.95;;
52033;SDS011;38045;52.988;6.536;2023-04-25T12:51:38;12.68;;;2.53;;
52033;SDS011;38045;52.988;6.536;2023-04-25T12:54:04;2.67;;;1.10;;
52033;SDS011;38045;52.988;6.536;2023-04-25T12:56:33;5.43;;;1.30;;
52033;SDS011;38045;52.988;6.536;2023-04-25T12:59:00;8.05;;;1.30;;
52033;SDS011;38045;52.988;6.536;2023-04-25T13:01:28;4.65;;;1.02;;
52033;SDS011;38045;52.988;6.536;2023-04-25T13:03:54;4.97;;;1.00;;
52033;SDS011;38045;52.988;6.536;2023-04-25T13:06:19;6.28;;;1.65;;
52033;SDS011;38045;52.988;6.536;2023-04-25T13:08:47;5.63;;;2.15;;
52033;SDS011;38045;52.988;6.536;2023-04-25T13:11:13;7.45;;;1.20;;
52033;SDS011;38045;52.988;6.536;2023-04-25T13:13:41;8.30;;;1.42;;
52033;SDS011;38045;52.988;6.536;2023-04-25T13:16:08;9.38;;;1.40;;
52033;SDS011;38045;52.988;6.536;2023-04-25T13:18:34;4.53;;;1.25;;
52033;SDS011;38045;52.988;6.536;2023-04-25T13:21:00;5.85;;;1.63;;
52033;SDS011;38045;52.988;6.536;2023-04-25T13:23:26;4.30;;;2.58;;
52033;SDS011;38045;52.988;6.536;2023-04-25T13:25:53;4.00;;;2.15;;
52033;SDS011;38045;52.988;6.536;2023-04-25T13:28:20;4.68;;;1.20;;
52033;SDS011;38045;52.988;6.536;2023-04-25T13:30:46;3.90;;;0.98;;
52033;SDS011;38045;52.988;6.536;2023-04-25T13:33:14;3.67;;;0.85;;
52033;SDS011;38045;52.988;6.536;2023-04-25T13:35:40;3.70;;;1.02;;
52033;SDS011;38045;52.988;6.536;2023-04-25T13:38:06;4.43;;;1.70;;
52033;SDS011;38045;52.988;6.536;2023-04-25T13:40:32;9.30;;;1.92;;
52033;SDS011;38045;52.988;6.536;2023-04-25T13:42:58;4.10;;;1.67;;
52033;SDS011;38045;52.988;6.536;2023-04-25T13:45:24;5.20;;;1.10;;
52033;SDS011;38045;52.988;6.536;2023-04-25T13:47:50;6.18;;;2.03;;
52033;SDS011;38045;52.988;6.536;2023-04-25T13:50:15;4.15;;;1.25;;
52033;SDS011;38045;52.988;6.536;2023-04-25T13:52:41;9.60;;;2.08;;
52033;SDS011;38045;52.988;6.536;2023-04-25T13:55:08;10.32;;;2.45;;
52033;SDS011;38045;52.988;6.536;2023-04-25T13:57:34;7.30;;;3.05;;
52033;SDS011;38045;52.988;6.536;2023-04-25T14:00:00;6.10;;;1.60;;
52033;SDS011;38045;52.988;6.536;2023-04-25T14:02:34;8.25;;;1.70;;
52033;SDS011;38045;52.988;6.536;2023-04-25T14:05:00;5.05;;;1.05;;
52033;SDS011;38045;52.988;6.536;2023-04-25T14:07:26;4.40;;;2.28;;
52033;SDS011;38045;52.988;6.536;2023-04-25T14:09:52;6.97;;;1.90;;
52033;SDS011;38045;52.988;6.536;2023-04-25T14:12:17;4.30;;;1.23;;
52033;SDS011;38045;52.988;6.536;2023-04-25T14:14:43;3.00;;;0.95;;
52033;SDS011;38045;52.988;6.536;2023-04-25T14:17:08;4.80;;;1.95;;
52033;SDS011;38045;52.988;6.536;2023-04-25T14:19:34;3.15;;;0.73;;
52033;SDS011;38045;52.988;6.536;2023-04-25T14:21:59;2.85;;;1.42;;
52033;SDS011;38045;52.988;6.536;2023-04-25T14:24:25;7.60;;;2.08;;
52033;SDS011;38045;52.988;6.536;2023-04-25T14:26:51;7.80;;;2.47;;
52033;SDS011;38045;52.988;6.536;2023-04-25T14:29:16;4.70;;;1.70;;
52033;SDS011;38045;52.988;6.536;2023-04-25T14:31:42;6.65;;;2.17;;
52033;SDS011;38045;52.988;6.536;2023-04-25T14:34:08;4.35;;;1.95;;
52033;SDS011;38045;52.988;6.536;2023-04-25T14:36:34;7.38;;;2.85;;
52033;SDS011;38045;52.988;6.536;2023-04-25T14:39:00;5.55;;;1.45;;
52033;SDS011;38045;52.988;6.536;2023-04-25T14:41:26;3.03;;;1.83;;
52033;SDS011;38045;52.988;6.536;2023-04-25T14:43:52;7.60;;;1.65;;
52033;SDS011;38045;52.988;6.536;2023-04-25T14:46:18;6.47;;;1.83;;
52033;SDS011;38045;52.988;6.536;2023-04-25T14:48:45;5.03;;;1.48;;
52033;SDS011;38045;52.988;6.536;2023-04-25T14:51:12;11.40;;;1.75;;
52033;SDS011;38045;52.988;6.536;2023-04-25T14:53:37;2.95;;;1.42;;
52033;SDS011;38045;52.988;6.536;2023-04-25T14:56:04;7.30;;;1.92;;
52033;SDS011;38045;52.988;6.536;2023-04-25T14:58:30;3.30;;;1.73;;
52033;SDS011;38045;52.988;6.536;2023-04-25T15:00:56;4.93;;;1.38;;
52033;SDS011;38045;52.988;6.536;2023-04-25T15:03:22;5.03;;;1.23;;